createdAt,value
2023-03-06T09:28:40.621Z,100630.86
2023-03-06T09:29:39.465Z,100610.06
2023-03-06T09:30:39.585Z,100609.89
2023-03-06T09:31:40.191Z,100608.97
2023-03-06T09:32:41.096Z,100609.03
2023-03-06T09:33:41.806Z,100608.72
2023-03-06T09:34:42.545Z,100608.22
2023-03-06T09:35:43.303Z,100608.39
2023-03-06T09:36:55.831Z,100607.44
2023-03-06T09:37:44.628Z,100607.37
2023-03-06T09:38:44.935Z,100607.01
2023-03-06T09:39:45.064Z,100606.71
2023-03-06T09:40:45.858Z,100606.86
2023-03-06T09:41:46.873Z,100606.31
2023-03-06T09:42:46.972Z,100607.02
2023-03-06T09:43:47.629Z,100607.17
2023-03-06T09:44:48.553Z,100607.62
2023-03-06T09:45:49.374Z,100607.66
2023-03-06T09:46:50.126Z,100607.61
2023-03-06T09:47:50.963Z,100608.00
2023-03-06T09:48:51.924Z,100608.39
2023-03-06T09:49:52.181Z,100608.57
2023-03-06T09:50:52.848Z,100608.65
2023-03-06T09:51:53.697Z,100609.09
2023-03-06T09:52:54.472Z,100610.04
2023-03-06T09:53:55.211Z,100610.88
2023-03-06T09:54:55.961Z,100611.29
2023-03-06T09:55:56.637Z,100611.20
2023-03-06T09:56:57.319Z,100611.39
2023-03-06T09:57:58.110Z,100611.84
2023-03-06T09:58:58.992Z,100612.53
2023-03-06T10:00:01.469Z,100612.87
2023-03-06T10:00:08.566Z,100637.23
2023-03-06T10:01:08.997Z,100625.09
2023-03-06T10:02:09.889Z,100624.75
2023-03-06T10:03:10.314Z,100624.89
2023-03-06T10:04:10.937Z,100624.65
2023-03-06T10:05:11.078Z,100625.30
2023-03-06T10:06:11.326Z,100624.94
2023-03-06T10:07:11.544Z,100625.11
2023-03-06T10:08:12.505Z,100625.35
2023-03-06T10:09:13.090Z,100625.77
2023-03-06T10:10:14.117Z,100626.27
2023-03-06T10:11:14.965Z,100626.13
2023-03-06T10:12:15.215Z,100626.47
2023-03-06T10:13:16.098Z,100626.85
2023-03-06T10:14:17.054Z,100626.69
2023-03-06T10:15:17.759Z,100626.75
2023-03-06T10:17:50.550Z,100586.80
2023-03-06T10:18:51.262Z,100630.88
2023-03-06T10:19:51.951Z,100630.28
2023-03-06T10:20:52.124Z,100630.63
2023-03-06T10:21:52.922Z,100630.29
2023-03-06T10:23:01.288Z,100630.00
2023-03-06T10:23:53.981Z,100630.52
2023-03-06T10:24:54.780Z,100630.23
2023-03-06T10:25:55.712Z,100629.97
2023-03-06T10:26:56.600Z,100630.17
2023-03-06T10:27:56.667Z,100630.07
2023-03-06T10:28:57.039Z,100630.19
2023-03-06T10:30:03.194Z,100630.14
2023-03-06T10:30:58.893Z,100629.95
2023-03-06T10:31:59.068Z,100630.25
2023-03-06T10:32:59.679Z,100630.45
2023-03-06T10:34:03.475Z,100630.63
2023-03-06T10:35:00.915Z,100631.01
2023-03-06T10:36:01.063Z,100631.10
2023-03-06T10:37:01.764Z,100631.84
2023-03-06T10:38:02.401Z,100632.11
2023-03-06T10:39:04.017Z,100632.85
2023-03-06T10:40:03.655Z,100632.75
2023-03-06T10:41:04.333Z,100632.99
2023-03-06T10:42:04.342Z,100633.00
2023-03-06T10:43:11.800Z,100633.37
2023-03-06T10:44:05.715Z,100633.63
2023-03-06T10:45:06.102Z,100633.67
2023-03-06T10:46:07.061Z,100634.10
2023-03-06T10:47:07.733Z,100634.39
2023-03-06T10:48:08.545Z,100634.39
2023-03-06T10:49:09.432Z,100633.83
2023-03-06T10:50:10.124Z,100634.17
2023-03-06T10:51:18.081Z,100633.89
2023-03-06T10:52:23.474Z,100640.70
2023-03-06T10:53:23.981Z,100644.42
2023-03-06T10:54:24.702Z,100643.83
2023-03-06T10:55:25.057Z,100643.39
2023-03-06T10:56:25.902Z,100642.69
2023-03-06T10:57:26.862Z,100642.02
2023-03-06T10:58:27.641Z,100642.20
2023-03-06T10:59:28.628Z,100642.45
2023-03-06T11:00:28.999Z,100642.12
2023-03-06T11:01:29.336Z,100642.38
2023-03-06T11:02:29.950Z,100642.56
2023-03-06T11:03:30.951Z,100642.79
2023-03-06T11:04:31.741Z,100643.41
2023-03-06T11:05:32.486Z,100643.27
2023-03-06T11:06:34.099Z,100643.69
2023-03-06T11:07:33.778Z,100643.96
2023-03-06T11:08:34.448Z,100644.55
2023-03-06T11:09:34.526Z,100645.25
2023-03-06T11:10:35.351Z,100644.91
2023-03-06T11:11:38.016Z,100644.80
2023-03-06T11:12:36.412Z,100644.86
2023-03-06T11:13:37.295Z,100645.14
2023-03-06T11:14:37.992Z,100645.47
2023-03-06T11:15:38.892Z,100645.88
2023-03-06T11:16:38.722Z,100645.91
2023-03-06T11:17:39.392Z,100645.92
2023-03-06T11:18:40.071Z,100645.86
2023-03-06T11:19:40.811Z,100646.35
2023-03-06T11:20:50.940Z,100646.48
2023-03-06T11:21:42.251Z,100646.79
2023-03-06T11:22:42.842Z,100646.78
2023-03-06T11:23:55.262Z,100622.21
2023-03-06T11:24:56.240Z,100642.56
2023-03-06T11:25:57.015Z,100642.19
2023-03-06T11:26:57.674Z,100642.55
2023-03-06T11:27:58.474Z,100642.55
2023-03-06T11:28:59.199Z,100642.34
2023-03-06T11:30:00.082Z,100642.30
2023-03-06T11:31:00.922Z,100642.21
2023-03-06T11:32:01.645Z,100642.16
2023-03-06T11:33:01.739Z,100641.66
2023-03-06T11:34:02.690Z,100641.38
2023-03-06T11:35:03.442Z,100640.98
2023-03-06T11:36:03.518Z,100640.31
2023-03-06T11:37:03.637Z,100639.51
2023-03-06T11:38:04.431Z,100639.00
2023-03-06T11:39:05.334Z,100638.92
2023-03-06T11:40:05.519Z,100638.61
2023-03-06T11:41:06.323Z,100638.36
2023-03-06T11:42:06.395Z,100637.86
2023-03-06T11:43:07.354Z,100637.02
2023-03-06T11:44:08.175Z,100635.64
2023-03-06T11:45:08.949Z,100635.16
2023-03-06T11:46:08.978Z,100633.82
2023-03-06T11:47:09.424Z,100632.86
2023-03-06T11:48:09.826Z,100631.54
2023-03-06T11:49:10.575Z,100630.92
2023-03-06T11:50:11.476Z,100629.39
2023-03-06T11:51:10.986Z,100628.92
2023-03-06T11:52:11.755Z,100627.69
2023-03-06T11:53:12.093Z,100626.41
2023-03-06T11:54:13.057Z,100626.02
2023-03-06T11:55:13.952Z,100625.55
2023-03-06T11:55:26.188Z,100611.84
2023-03-06T11:56:26.704Z,100608.58
2023-03-06T11:57:27.087Z,100608.00
2023-03-06T11:58:27.615Z,100607.86
2023-03-06T11:59:28.586Z,100607.20
2023-03-06T12:00:29.613Z,100606.87
2023-03-06T12:01:30.500Z,100606.45
2023-03-06T12:02:30.820Z,100605.23
2023-03-06T12:03:30.873Z,100604.73
2023-03-06T12:04:31.833Z,100603.78
2023-03-06T12:05:32.262Z,100603.03
2023-03-06T12:06:32.947Z,100602.27
2023-03-06T12:07:33.058Z,100601.91
2023-03-06T12:08:33.370Z,100600.44
2023-03-06T12:09:33.707Z,100600.67
2023-03-06T12:10:34.630Z,100599.34
2023-03-06T12:11:34.678Z,100598.81
2023-03-06T12:12:34.729Z,100598.44
2023-03-06T12:13:34.745Z,100597.59
2023-03-06T12:14:35.314Z,100596.97
2023-03-06T12:15:36.317Z,100596.17
2023-03-06T12:16:36.839Z,100595.83
2023-03-06T12:17:37.618Z,100595.48
2023-03-06T12:18:38.243Z,100594.61
2023-03-06T12:19:39.087Z,100593.84
2023-03-06T12:20:40.044Z,100593.34
2023-03-06T12:21:40.533Z,100592.38
2023-03-06T12:22:41.016Z,100591.24
2023-03-06T12:23:41.917Z,100591.16
2023-03-06T12:24:42.495Z,100590.25
2023-03-06T12:25:42.725Z,100589.79
2023-03-06T12:26:43.384Z,100589.23
2023-03-06T12:27:44.158Z,100589.33
2023-03-06T12:27:53.357Z,100583.06
2023-03-06T12:28:53.771Z,100577.09
2023-03-06T12:29:56.203Z,100576.75
2023-03-06T12:30:54.351Z,100576.72
2023-03-06T12:31:54.561Z,100576.61
2023-03-06T12:32:55.122Z,100576.25
2023-03-06T12:33:55.870Z,100575.66
2023-03-06T12:34:55.816Z,100575.09
2023-03-06T12:35:56.718Z,100574.23
2023-03-06T12:36:57.224Z,100573.42
2023-03-06T12:37:57.637Z,100572.55
2023-03-06T12:38:57.958Z,100571.54
2023-03-06T12:39:58.742Z,100570.73
2023-03-06T12:40:58.795Z,100569.55
2023-03-06T12:41:59.226Z,100568.38
2023-03-06T12:42:59.944Z,100566.61
2023-03-06T12:44:00.702Z,100565.73
2023-03-06T12:45:01.413Z,100564.64
2023-03-06T12:46:01.886Z,100563.48
2023-03-06T12:47:01.929Z,100562.70
2023-03-06T12:48:02.734Z,100562.09
2023-03-06T12:49:03.165Z,100561.30
2023-03-06T12:50:03.813Z,100559.98
2023-03-06T12:51:04.504Z,100559.00
2023-03-06T12:52:04.758Z,100557.34
2023-03-06T12:53:05.518Z,100556.28
2023-03-06T12:54:06.105Z,100555.33
2023-03-06T12:55:06.727Z,100554.79
2023-03-06T12:56:07.364Z,100553.62
2023-03-06T12:57:07.704Z,100553.09
2023-03-06T12:58:08.281Z,100552.45
2023-03-06T12:59:09.015Z,100551.55
2023-03-06T13:00:09.804Z,100550.62
2023-03-06T13:00:18.514Z,100544.66
2023-03-06T13:01:19.164Z,100538.91
2023-03-06T13:02:19.521Z,100538.69
2023-03-06T13:03:20.195Z,100539.22
2023-03-06T13:04:20.485Z,100539.25
2023-03-06T13:05:20.488Z,100539.45
2023-03-06T13:06:20.861Z,100539.54
2023-03-06T13:07:21.028Z,100539.56
2023-03-06T13:08:21.115Z,100539.91
2023-03-06T13:09:21.898Z,100540.22
2023-03-06T13:10:22.708Z,100540.53
2023-03-06T13:11:23.010Z,100540.80
2023-03-06T13:12:23.837Z,100541.30
2023-03-06T13:13:24.825Z,100541.95
2023-03-06T13:14:25.329Z,100542.70
2023-03-06T13:15:26.085Z,100543.22
2023-03-06T13:16:26.618Z,100543.64
2023-03-06T13:17:27.096Z,100544.23
2023-03-06T13:18:27.496Z,100544.06
2023-03-06T13:19:27.702Z,100543.68
2023-03-06T13:20:28.337Z,100543.13
2023-03-06T13:21:28.941Z,100543.21
2023-03-06T13:22:29.529Z,100543.25
2023-03-06T13:23:29.846Z,100542.91
2023-03-06T13:24:30.563Z,100542.08
2023-03-06T13:25:30.889Z,100541.27
2023-03-06T13:26:31.429Z,100540.52
2023-03-06T13:27:31.797Z,100540.18
2023-03-06T13:28:32.245Z,100539.09
2023-03-06T13:29:33.104Z,100538.84
2023-03-06T13:30:33.447Z,100538.17
2023-03-06T13:31:33.866Z,100537.14
2023-03-06T13:32:34.380Z,100536.36
2023-03-06T13:33:34.506Z,100535.83
2023-03-06T13:34:34.704Z,100534.97
2023-03-06T13:34:46.064Z,100525.60
2023-03-06T13:35:43.522Z,100520.48
2023-03-06T13:36:43.759Z,100520.48
2023-03-06T13:37:44.529Z,100520.20
2023-03-06T13:38:44.054Z,100519.53
2023-03-06T13:39:44.377Z,100519.45
2023-03-06T13:40:44.528Z,100519.45
2023-03-06T13:41:45.307Z,100518.67
2023-03-06T13:42:45.399Z,100518.67
2023-03-06T13:43:46.036Z,100517.50
2023-03-06T13:44:46.790Z,100516.64
2023-03-06T13:45:47.334Z,100515.94
2023-03-06T13:46:47.045Z,100515.22
2023-03-06T13:48:15.593Z,100514.86
2023-03-06T13:48:47.521Z,100514.25
2023-03-06T13:49:47.673Z,100513.69
2023-03-06T13:50:47.852Z,100513.21
2023-03-06T13:51:48.601Z,100512.83
2023-03-06T13:52:49.011Z,100512.44
2023-03-06T13:53:49.965Z,100511.71
2023-03-06T13:54:50.001Z,100510.98
2023-03-06T13:55:50.947Z,100510.23
2023-03-06T13:56:51.806Z,100509.48
2023-03-06T13:57:52.717Z,100508.84
2023-03-06T13:58:52.711Z,100508.66
2023-03-06T14:00:03.217Z,100508.52
2023-03-06T14:00:54.250Z,100507.41
2023-03-06T14:01:54.763Z,100507.55
2023-03-06T14:02:04.969Z,100509.47
2023-03-06T14:03:05.291Z,100502.69
2023-03-06T14:04:05.953Z,100502.60
2023-03-06T14:05:06.637Z,100502.27
2023-03-06T14:06:06.745Z,100502.21
2023-03-06T14:07:07.526Z,100502.16
2023-03-06T14:08:08.278Z,100502.16
2023-03-06T14:09:09.129Z,100502.02
2023-03-06T14:10:09.738Z,100501.69
2023-03-06T14:11:13.026Z,100501.94
2023-03-06T14:12:11.546Z,100502.05
2023-03-06T14:13:12.492Z,100501.63
2023-03-06T14:14:12.608Z,100501.80
2023-03-06T14:15:12.953Z,100501.75
2023-03-06T14:16:13.821Z,100501.75
2023-03-06T14:17:14.355Z,100501.83
2023-03-06T14:18:14.779Z,100501.36
2023-03-06T14:19:14.923Z,100501.02
2023-03-06T14:20:15.154Z,100501.27
2023-03-06T14:21:15.450Z,100501.30
2023-03-06T14:22:15.684Z,100501.25
2023-03-06T14:23:16.102Z,100501.24
2023-03-06T14:24:16.329Z,100501.70
2023-03-06T14:25:16.657Z,100501.86
2023-03-06T14:26:17.084Z,100502.45
2023-03-06T14:27:17.945Z,100502.73
2023-03-06T14:28:18.614Z,100503.23
2023-03-06T14:29:18.674Z,100503.15
2023-03-06T14:30:19.649Z,100503.09
2023-03-06T14:31:20.126Z,100502.84
2023-03-06T14:32:20.700Z,100502.84
2023-03-06T14:32:32.834Z,100506.25
2023-03-06T14:33:33.068Z,100502.16
2023-03-06T14:34:33.804Z,100501.73
2023-03-06T14:35:34.711Z,100501.39
2023-03-06T14:36:34.876Z,100500.97
2023-03-06T14:37:35.475Z,100500.59
2023-03-06T14:38:35.575Z,100499.75
2023-03-06T14:39:36.230Z,100499.80
2023-03-06T14:40:36.428Z,100499.72
2023-03-06T14:41:37.145Z,100499.30
2023-03-06T14:42:37.952Z,100499.41
2023-03-06T14:43:38.601Z,100499.16
2023-03-06T14:44:38.951Z,100499.16
2023-03-06T14:45:39.516Z,100498.36
2023-03-06T14:46:40.386Z,100498.60
2023-03-06T14:47:43.645Z,100499.14
2023-03-06T14:48:41.432Z,100499.30
2023-03-06T14:49:41.970Z,100499.00
2023-03-06T14:50:42.715Z,100499.11
2023-03-06T14:51:43.374Z,100498.80
2023-03-06T14:52:43.539Z,100498.50
2023-03-06T14:53:43.859Z,100498.50
2023-03-06T14:54:44.365Z,100498.27
2023-03-06T14:55:44.627Z,100498.14
2023-03-06T14:56:44.727Z,100497.97
2023-03-06T14:57:45.584Z,100497.58
2023-03-06T14:58:46.168Z,100497.66
2023-03-06T14:59:47.037Z,100497.08
2023-03-06T15:00:47.609Z,100496.86
2023-03-06T15:01:47.821Z,100497.02
2023-03-06T15:02:48.322Z,100496.69
2023-03-06T15:03:48.447Z,100496.52
2023-03-06T15:03:59.831Z,100490.23
2023-03-06T15:04:57.287Z,100493.95
2023-03-06T15:05:57.330Z,100493.36
2023-03-06T15:06:58.141Z,100493.78
2023-03-06T15:07:58.747Z,100493.45
2023-03-06T15:08:59.311Z,100493.03
2023-03-06T15:09:59.940Z,100493.45
2023-03-06T15:11:00.423Z,100493.78
2023-03-06T15:12:01.368Z,100493.78
2023-03-06T15:13:01.944Z,100493.62
2023-03-06T15:14:02.775Z,100494.00
2023-03-06T15:15:03.000Z,100494.34
2023-03-06T15:16:03.698Z,100494.28
2023-03-06T15:17:04.105Z,100494.87
2023-03-06T15:18:04.749Z,100495.52
2023-03-06T15:19:05.099Z,100495.52
2023-03-06T15:20:05.627Z,100495.56
2023-03-06T15:21:06.419Z,100495.38
2023-03-06T15:22:06.898Z,100494.70
2023-03-06T15:23:07.878Z,100494.95
2023-03-06T15:24:08.221Z,100494.78
2023-03-06T15:25:08.805Z,100495.20
2023-03-06T15:26:09.710Z,100494.78
2023-03-06T15:27:10.516Z,100494.95
2023-03-06T15:28:10.581Z,100494.70
2023-03-06T15:29:11.026Z,100494.20
2023-03-06T15:30:11.736Z,100493.36
2023-03-06T15:31:12.066Z,100492.86
2023-03-06T15:32:12.291Z,100492.64
2023-03-06T15:33:12.507Z,100492.05
2023-03-06T15:34:12.553Z,100492.22
2023-03-06T15:35:13.349Z,100492.22
2023-03-06T15:36:13.575Z,100491.80
2023-03-06T15:36:29.399Z,100507.55
2023-03-06T15:37:29.849Z,100489.43
2023-03-06T15:38:30.612Z,100489.21
2023-03-06T15:39:31.110Z,100488.95
2023-03-06T15:40:31.187Z,100488.70
2023-03-06T15:41:31.319Z,100489.04
2023-03-06T15:42:31.706Z,100489.07
2023-03-06T15:43:32.300Z,100489.23
2023-03-06T15:44:33.052Z,100488.71
2023-03-06T15:45:34.066Z,100488.28
2023-03-06T15:46:34.414Z,100487.89
2023-03-06T15:47:37.276Z,100487.25
2023-03-06T15:48:35.544Z,100487.20
2023-03-06T15:49:35.546Z,100487.39
2023-03-06T15:50:35.927Z,100486.92
2023-03-06T15:51:36.669Z,100486.87
2023-03-06T15:52:37.044Z,100486.87
2023-03-06T15:53:37.817Z,100486.48
2023-03-06T15:54:38.525Z,100485.67
2023-03-06T15:55:39.193Z,100485.78
2023-03-06T15:56:39.989Z,100485.39
2023-03-06T15:57:40.821Z,100485.25
2023-03-06T15:58:40.915Z,100484.91
2023-03-06T15:59:41.553Z,100484.95
2023-03-06T16:00:42.511Z,100485.20
2023-03-06T16:01:42.855Z,100485.56
2023-03-06T16:02:42.958Z,100485.39
2023-03-06T16:03:43.765Z,100485.09
2023-03-06T16:04:43.940Z,100485.00
2023-03-06T16:05:44.487Z,100484.61
2023-03-06T16:06:45.272Z,100484.27
2023-03-06T16:07:45.479Z,100484.47
2023-03-06T16:07:54.749Z,100485.19
2023-03-06T16:08:55.211Z,100484.61
2023-03-06T16:09:55.847Z,100484.53
2023-03-06T16:10:55.963Z,100484.19
2023-03-06T16:11:56.156Z,100483.86
2023-03-06T16:12:57.089Z,100483.52
2023-03-06T16:13:57.687Z,100483.19
2023-03-06T16:14:58.539Z,100482.59
2023-03-06T16:15:59.074Z,100482.52
2023-03-06T16:16:59.964Z,100482.13
2023-03-06T16:18:00.068Z,100481.53
2023-03-06T16:19:00.683Z,100481.73
2023-03-06T16:20:00.827Z,100481.23
2023-03-06T16:21:00.884Z,100480.42
2023-03-06T16:22:01.667Z,100480.34
2023-03-06T16:23:02.414Z,100479.70
2023-03-06T16:24:02.640Z,100478.94
2023-03-06T16:25:02.769Z,100478.35
2023-03-06T16:26:03.681Z,100478.72
2023-03-06T16:27:03.913Z,100478.21
2023-03-06T16:28:04.674Z,100478.08
2023-03-06T16:29:04.619Z,100478.44
2023-03-06T16:30:05.600Z,100478.10
2023-03-06T16:31:05.658Z,100478.30
2023-03-06T16:32:06.022Z,100477.49
2023-03-06T16:33:06.347Z,100477.99
2023-03-06T16:34:07.067Z,100477.34
2023-03-06T16:35:08.092Z,100477.63
2023-03-06T16:36:08.509Z,100477.41
2023-03-06T16:37:08.545Z,100477.66
2023-03-06T16:38:09.360Z,100477.02
2023-03-06T16:39:10.079Z,100477.02
2023-03-06T16:39:54.918Z,100487.53
2023-03-06T16:40:54.871Z,100477.87
2023-03-06T16:41:55.643Z,100477.56
2023-03-06T16:42:55.803Z,100477.14
2023-03-06T16:43:55.871Z,100476.73
2023-03-06T16:45:06.310Z,100476.08
2023-03-06T16:46:07.045Z,100475.83
2023-03-06T16:47:07.497Z,100475.50
2023-03-06T16:48:08.049Z,100475.27
2023-03-06T16:49:08.622Z,100475.19
2023-03-06T16:50:09.388Z,100475.22
2023-03-06T16:51:10.136Z,100475.47
2023-03-06T16:52:10.863Z,100475.13
2023-03-06T16:53:10.982Z,100474.99
2023-03-06T16:54:11.672Z,100474.41
2023-03-06T16:55:11.979Z,100473.98
2023-03-06T16:56:14.643Z,100473.93
2023-03-06T16:57:12.354Z,100474.27
2023-03-06T16:58:12.492Z,100474.10
2023-03-06T16:59:12.549Z,100473.68
2023-03-06T17:00:13.521Z,100473.77
2023-03-06T17:01:14.116Z,100473.71
2023-03-06T17:02:14.900Z,100473.45
2023-03-06T17:03:15.625Z,100473.54
2023-03-06T17:04:15.732Z,100473.95
2023-03-06T17:05:16.772Z,100473.45
2023-03-06T17:06:16.903Z,100473.56
2023-03-06T17:07:17.068Z,100473.81
2023-03-06T17:08:18.014Z,100473.98
2023-03-06T17:09:18.508Z,100474.09
2023-03-06T17:10:19.216Z,100472.95
2023-03-06T17:10:35.028Z,100489.02
2023-03-06T17:11:35.901Z,100478.73
2023-03-06T17:12:36.483Z,100478.09
2023-03-06T17:13:36.745Z,100477.67
2023-03-06T17:14:37.677Z,100477.53
2023-03-06T17:15:38.577Z,100477.45
2023-03-06T17:16:38.773Z,100476.98
2023-03-06T17:17:39.269Z,100476.98
2023-03-06T17:18:39.762Z,100476.64
2023-03-06T17:19:42.124Z,100476.39
2023-03-06T17:20:42.972Z,100476.50
2023-03-06T17:21:41.326Z,100476.92
2023-03-06T17:22:42.112Z,100476.41
2023-03-06T17:23:42.374Z,100476.61
2023-03-06T17:24:42.471Z,100476.22
2023-03-06T17:25:43.069Z,100476.38
2023-03-06T17:26:43.077Z,100476.41
2023-03-06T17:27:43.751Z,100476.77
2023-03-06T17:28:44.736Z,100477.05
2023-03-06T17:29:45.359Z,100478.00
2023-03-06T17:30:45.689Z,100478.35
2023-03-06T17:31:45.970Z,100478.88
2023-03-06T17:32:46.849Z,100479.33
2023-03-06T17:33:46.968Z,100479.69
2023-03-06T17:34:47.988Z,100479.77
2023-03-06T17:35:48.132Z,100480.21
2023-03-06T17:36:49.302Z,100480.48
2023-03-06T17:37:48.758Z,100480.60
2023-03-06T17:38:48.873Z,100481.44
2023-03-06T17:39:49.455Z,100482.05
2023-03-06T17:40:49.918Z,100482.41
2023-03-06T17:41:50.937Z,100482.34
2023-03-06T17:42:51.354Z,100482.88
2023-03-06T17:43:51.500Z,100482.82
2023-03-06T17:44:51.822Z,100483.27
2023-03-06T17:45:04.059Z,100487.01
2023-03-06T17:46:04.623Z,100486.39
2023-03-06T17:47:04.849Z,100486.72
2023-03-06T17:48:05.674Z,100485.97
2023-03-06T17:49:05.804Z,100486.14
2023-03-06T17:50:05.932Z,100486.22
2023-03-06T17:51:06.446Z,100486.06
2023-03-06T17:52:06.722Z,100486.30
2023-03-06T17:53:07.530Z,100486.64
2023-03-06T17:54:08.113Z,100486.81
2023-03-06T17:55:08.814Z,100486.50
2023-03-06T17:56:09.386Z,100486.75
2023-03-06T17:57:10.128Z,100486.27
2023-03-06T17:58:12.356Z,100486.27
2023-03-06T17:59:11.150Z,100486.80
2023-03-06T18:00:11.860Z,100486.80
2023-03-06T18:01:12.027Z,100486.66
2023-03-06T18:02:12.877Z,100486.44
2023-03-06T18:03:14.438Z,100486.59
2023-03-06T18:04:15.272Z,100486.62
2023-03-06T18:05:14.445Z,100486.89
2023-03-06T18:06:14.545Z,100487.17
2023-03-06T18:07:15.217Z,100487.28
2023-03-06T18:08:15.865Z,100486.52
2023-03-06T18:09:16.055Z,100486.13
2023-03-06T18:10:16.539Z,100485.41
2023-03-06T18:11:16.888Z,100484.80
2023-03-06T18:12:17.862Z,100485.06
2023-03-06T18:13:18.330Z,100485.67
2023-03-06T18:14:18.332Z,100485.97
2023-03-06T18:15:18.549Z,100485.74
2023-03-06T18:16:19.582Z,100485.84
2023-03-06T18:17:20.484Z,100486.16
2023-03-06T18:18:21.289Z,100486.00
2023-03-06T18:19:21.972Z,100486.06
2023-03-06T18:20:22.777Z,100485.99
2023-03-06T18:21:23.753Z,100486.94
2023-03-06T18:21:32.475Z,100489.70
2023-03-06T18:22:33.451Z,100490.09
2023-03-06T18:23:33.888Z,100489.92
2023-03-06T18:24:34.808Z,100489.84
2023-03-06T18:25:35.602Z,100489.09
2023-03-06T18:26:35.889Z,100489.11
2023-03-06T18:27:36.740Z,100489.03
2023-03-06T18:28:37.106Z,100488.72
2023-03-06T18:29:37.841Z,100489.14
2023-03-06T18:30:38.390Z,100488.80
2023-03-06T18:31:38.917Z,100488.33
2023-03-06T18:32:39.672Z,100488.44
2023-03-06T18:33:39.894Z,100488.59
2023-03-06T18:34:40.292Z,100488.87
2023-03-06T18:35:40.968Z,100489.39
2023-03-06T18:36:40.938Z,100489.00
2023-03-06T18:37:41.090Z,100489.02
2023-03-06T18:38:41.910Z,100488.79
2023-03-06T18:39:41.965Z,100488.98
2023-03-06T18:40:42.408Z,100488.61
2023-03-06T18:41:43.338Z,100488.37
2023-03-06T18:42:44.663Z,100488.23
2023-03-06T18:43:44.125Z,100488.20
2023-03-06T18:44:44.298Z,100488.06
2023-03-06T18:45:44.380Z,100486.66
2023-03-06T18:46:44.917Z,100486.34
2023-03-06T18:47:45.561Z,100486.20
2023-03-06T18:48:45.837Z,100485.55
2023-03-06T18:49:46.505Z,100485.41
2023-03-06T18:50:46.813Z,100484.20
2023-03-06T18:51:47.164Z,100483.14
2023-03-06T18:52:47.818Z,100483.33
2023-03-06T18:53:48.730Z,100482.69
2023-03-06T18:53:57.466Z,100475.02
2023-03-06T18:54:58.173Z,100473.55
2023-03-06T18:55:58.401Z,100473.30
2023-03-06T18:56:58.334Z,100473.47
2023-03-06T18:57:58.370Z,100473.00
2023-03-06T18:58:59.208Z,100473.58
2023-03-06T19:00:00.204Z,100473.60
2023-03-06T19:01:00.682Z,100473.27
2023-03-06T19:02:01.251Z,100473.38
2023-03-06T19:03:03.264Z,100473.38
2023-03-06T19:04:02.546Z,100473.73
2023-03-06T19:05:03.026Z,100473.89
2023-03-06T19:06:03.196Z,100473.50
2023-03-06T19:07:03.912Z,100474.19
2023-03-06T19:08:04.667Z,100474.10
2023-03-06T19:09:05.529Z,100473.56
2023-03-06T19:10:06.640Z,100473.59
2023-03-06T19:11:07.329Z,100473.77
2023-03-06T19:12:07.482Z,100473.63
2023-03-06T19:13:08.303Z,100473.98
2023-03-06T19:14:08.977Z,100473.91
2023-03-06T19:15:09.305Z,100473.80
2023-03-06T19:16:09.955Z,100473.56
2023-03-06T19:17:10.389Z,100473.53
2023-03-06T19:18:10.956Z,100473.12
2023-03-06T19:19:15.063Z,100472.89
2023-03-06T19:20:12.658Z,100473.25
2023-03-06T19:21:13.113Z,100472.80
2023-03-06T19:22:14.170Z,100471.89
2023-03-06T19:23:14.181Z,100471.61
2023-03-06T19:24:28.030Z,100472.36
2023-03-06T19:25:24.583Z,100453.26
2023-03-06T19:26:25.162Z,100453.59
2023-03-06T19:27:27.828Z,100453.65
2023-03-06T19:28:25.774Z,100454.06
2023-03-06T19:29:26.074Z,100454.23
2023-03-06T19:30:26.989Z,100454.91
2023-03-06T19:31:27.345Z,100455.56
2023-03-06T19:32:27.425Z,100455.98
2023-03-06T19:33:27.732Z,100456.17
2023-03-06T19:34:29.945Z,100456.59
2023-03-06T19:36:44.694Z,100457.17
2023-03-06T19:37:45.608Z,100457.84
2023-03-06T19:38:43.291Z,100458.34
2023-03-06T19:39:43.745Z,100458.67
2023-03-06T19:40:44.475Z,100459.62
2023-03-06T19:41:44.898Z,100460.62
2023-03-06T19:42:45.934Z,100460.78
2023-03-06T19:43:45.932Z,100460.61
2023-03-06T19:44:57.962Z,100460.95
2023-03-06T19:45:47.017Z,100460.53
2023-03-06T19:46:47.806Z,100460.97
2023-03-06T19:47:55.261Z,100461.13
2023-03-06T19:48:48.826Z,100461.23
2023-03-06T19:49:49.599Z,100461.59
2023-03-06T19:50:50.340Z,100461.50
2023-03-06T19:51:51.238Z,100461.86
2023-03-06T19:52:51.652Z,100461.80
2023-03-06T19:53:51.978Z,100462.05
2023-03-06T19:54:52.029Z,100462.23
2023-03-06T19:55:52.607Z,100462.06
2023-03-06T19:56:52.889Z,100461.59
2023-03-06T19:57:53.452Z,100461.75
2023-03-06T19:58:54.277Z,100461.66
2023-03-06T19:59:06.400Z,100463.67
2023-03-06T20:00:04.381Z,100455.84
2023-03-06T20:01:05.300Z,100455.51
2023-03-06T20:02:06.127Z,100455.59
2023-03-06T20:03:06.872Z,100454.84
2023-03-06T20:04:07.333Z,100454.27
2023-03-06T20:05:09.388Z,100453.91
2023-03-06T20:06:11.506Z,100452.57
2023-03-06T20:07:10.396Z,100451.33
2023-03-06T20:08:09.830Z,100450.41
2023-03-06T20:09:10.312Z,100449.63
2023-03-06T20:10:10.334Z,100448.88
2023-03-06T20:11:11.105Z,100447.64
2023-03-06T20:12:13.844Z,100446.97
2023-03-06T20:13:11.857Z,100446.05
2023-03-06T20:14:12.481Z,100444.63
2023-03-06T20:15:14.925Z,100443.96
2023-03-06T20:16:13.109Z,100442.71
2023-03-06T20:17:13.584Z,100441.71
2023-03-06T20:18:13.806Z,100440.21
2023-03-06T20:19:14.198Z,100439.38
2023-03-06T20:20:14.394Z,100438.96
2023-03-06T20:21:15.095Z,100438.30
2023-03-06T20:22:15.182Z,100436.63
2023-03-06T20:23:16.731Z,100434.45
2023-03-06T20:24:16.609Z,100432.63
2023-03-06T20:25:16.997Z,100431.13
2023-03-06T20:26:20.052Z,100429.45
2023-03-06T20:27:17.583Z,100428.45
2023-03-06T20:28:20.462Z,100427.28
2023-03-06T20:29:18.186Z,100425.73
2023-03-06T20:30:20.131Z,100424.72
2023-03-06T20:31:22.386Z,100422.47
2023-03-06T20:32:20.954Z,100421.38
2023-03-06T20:33:21.693Z,100420.05
2023-03-06T20:34:22.346Z,100418.55
2023-03-06T20:34:33.333Z,100401.88
2023-03-06T20:35:32.285Z,100392.40
2023-03-06T20:36:35.463Z,100392.40
2023-03-06T20:37:33.948Z,100392.48
2023-03-06T20:38:35.874Z,100391.91
2023-03-06T20:39:35.763Z,100391.06
2023-03-06T20:40:43.445Z,100390.21
2023-03-06T20:41:39.010Z,100389.21
2023-03-06T20:42:36.735Z,100388.71
2023-03-06T20:43:37.443Z,100388.46
2023-03-06T20:44:38.293Z,100386.88
2023-03-06T20:45:38.641Z,100386.44
2023-03-06T20:46:40.040Z,100385.69
2023-03-06T20:47:39.804Z,100385.20
2023-03-06T20:48:39.970Z,100384.67